sensor_id;sensor_type;location;lat;lon;timestamp;temperature;humidity
26378;DHT22;14078;50.974;6.786;2023-03-11T00:01:29;2.00;99.90
26378;DHT22;14078;50.974;6.786;2023-03-11T00:03:57;2.00;99.90
26378;DHT22;14078;50.974;6.786;2023-03-11T00:06:24;2.00;99.90
26378;DHT22;14078;50.974;6.786;2023-03-11T00:08:50;2.10;99.90
26378;DHT22;14078;50.974;6.786;2023-03-11T00:11:17;2.10;99.90
26378;DHT22;14078;50.974;6.786;2023-03-11T00:13:48;2.10;99.90
26378;DHT22;14078;50.974;6.786;2023-03-11T00:16:14;2.10;99.90
26378;DHT22;14078;50.974;6.786;2023-03-11T00:18:41;2.10;99.90
26378;DHT22;14078;50.974;6.786;2023-03-11T00:21:11;2.10;99.90
26378;DHT22;14078;50.974;6.786;2023-03-11T00:23:39;2.10;99.90
26378;DHT22;14078;50.974;6.786;2023-03-11T00:26:05;2.10;99.90
26378;DHT22;14078;50.974;6.786;2023-03-11T00:28:32;2.10;99.90
26378;DHT22;14078;50.974;6.786;2023-03-11T00:31:00;2.00;99.90
26378;DHT22;14078;50.974;6.786;2023-03-11T00:33:27;1.90;99.90
26378;DHT22;14078;50.974;6.786;2023-03-11T00:35:53;1.80;99.90
26378;DHT22;14078;50.974;6.786;2023-03-11T00:38:20;1.70;99.90
26378;DHT22;14078;50.974;6.786;2023-03-11T00:40:47;1.60;99.90
26378;DHT22;14078;50.974;6.786;2023-03-11T00:43:14;1.60;99.90
26378;DHT22;14078;50.974;6.786;2023-03-11T00:45:41;1.60;99.90
26378;DHT22;14078;50.974;6.786;2023-03-11T00:48:10;1.70;99.90
26378;DHT22;14078;50.974;6.786;2023-03-11T00:50:37;1.70;99.90
26378;DHT22;14078;50.974;6.786;2023-03-11T00:53:04;1.70;99.90
26378;DHT22;14078;50.974;6.786;2023-03-11T00:55:31;1.80;99.90
26378;DHT22;14078;50.974;6.786;2023-03-11T00:57:59;1.80;99.90
26378;DHT22;14078;50.974;6.786;2023-03-11T01:00:26;1.80;99.90
26378;DHT22;14078;50.974;6.786;2023-03-11T01:02:54;1.80;99.90
26378;DHT22;14078;50.974;6.786;2023-03-11T01:05:23;1.80;99.90
26378;DHT22;14078;50.974;6.786;2023-03-11T01:07:50;1.80;99.90
26378;DHT22;14078;50.974;6.786;2023-03-11T01:10:17;1.90;99.90
26378;DHT22;14078;50.974;6.786;2023-03-11T01:12:43;1.90;99.90
26378;DHT22;14078;50.974;6.786;2023-03-11T01:15:13;1.90;99.90
26378;DHT22;14078;50.974;6.786;2023-03-11T01:17:41;1.80;99.90
26378;DHT22;14078;50.974;6.786;2023-03-11T01:20:08;1.90;99.90
26378;DHT22;14078;50.974;6.786;2023-03-11T01:22:37;1.90;99.90
26378;DHT22;14078;50.974;6.786;2023-03-11T01:25:04;1.90;99.90
26378;DHT22;14078;50.974;6.786;2023-03-11T01:27:31;1.90;99.90
26378;DHT22;14078;50.974;6.786;2023-03-11T01:29:57;1.90;99.90
26378;DHT22;14078;50.974;6.786;2023-03-11T01:32:24;1.90;99.90
26378;DHT22;14078;50.974;6.786;2023-03-11T01:34:50;1.90;99.90
26378;DHT22;14078;50.974;6.786;2023-03-11T01:37:17;1.90;99.90
26378;DHT22;14078;50.974;6.786;2023-03-11T01:39:46;1.90;99.90
26378;DHT22;14078;50.974;6.786;2023-03-11T01:42:12;1.90;99.90
26378;DHT22;14078;50.974;6.786;2023-03-11T01:44:39;1.90;99.90
26378;DHT22;14078;50.974;6.786;2023-03-11T01:49:50;1.90;99.90
26378;DHT22;14078;50.974;6.786;2023-03-11T01:52:17;1.70;99.90
26378;DHT22;14078;50.974;6.786;2023-03-11T01:54:45;1.70;99.90
26378;DHT22;14078;50.974;6.786;2023-03-11T01:57:12;1.70;99.90
26378;DHT22;14078;50.974;6.786;2023-03-11T01:59:40;1.60;99.90
26378;DHT22;14078;50.974;6.786;2023-03-11T02:02:10;1.60;99.90
26378;DHT22;14078;50.974;6.786;2023-03-11T02:04:39;1.60;99.90
26378;DHT22;14078;50.974;6.786;2023-03-11T02:07:07;1.50;99.90
26378;DHT22;14078;50.974;6.786;2023-03-11T02:09:34;1.50;99.90
26378;DHT22;14078;50.974;6.786;2023-03-11T02:12:02;1.50;99.90
26378;DHT22;14078;50.974;6.786;2023-03-11T02:14:29;1.50;99.90
26378;DHT22;14078;50.974;6.786;2023-03-11T02:16:56;1.50;99.90
26378;DHT22;14078;50.974;6.786;2023-03-11T02:19:25;1.40;99.90
26378;DHT22;14078;50.974;6.786;2023-03-11T02:21:55;1.40;99.90
26378;DHT22;14078;50.974;6.786;2023-03-11T02:24:24;1.40;99.90
26378;DHT22;14078;50.974;6.786;2023-03-11T02:26:54;1.40;99.90
26378;DHT22;14078;50.974;6.786;2023-03-11T02:29:21;1.40;99.90
26378;DHT22;14078;50.974;6.786;2023-03-11T02:31:48;1.40;99.90
26378;DHT22;14078;50.974;6.786;2023-03-11T02:34:15;1.30;99.90
26378;DHT22;14078;50.974;6.786;2023-03-11T02:36:44;1.40;99.90
26378;DHT22;14078;50.974;6.786;2023-03-11T02:39:10;1.30;99.90
26378;DHT22;14078;50.974;6.786;2023-03-11T02:41:37;1.30;99.90
26378;DHT22;14078;50.974;6.786;2023-03-11T02:44:07;1.30;99.90
26378;DHT22;14078;50.974;6.786;2023-03-11T02:46:34;1.30;99.90
26378;DHT22;14078;50.974;6.786;2023-03-11T02:49:01;1.30;99.90
26378;DHT22;14078;50.974;6.786;2023-03-11T02:51:28;1.30;99.90
26378;DHT22;14078;50.974;6.786;2023-03-11T02:53:55;1.20;99.90
26378;DHT22;14078;50.974;6.786;2023-03-11T02:56:23;1.20;99.90
26378;DHT22;14078;50.974;6.786;2023-03-11T02:58:49;1.20;99.90
26378;DHT22;14078;50.974;6.786;2023-03-11T03:01:17;1.20;99.90
26378;DHT22;14078;50.974;6.786;2023-03-11T03:03:43;1.20;99.90
26378;DHT22;14078;50.974;6.786;2023-03-11T03:06:10;1.20;99.90
26378;DHT22;14078;50.974;6.786;2023-03-11T03:08:37;1.20;99.90
26378;DHT22;14078;50.974;6.786;2023-03-11T03:11:03;1.10;99.90
26378;DHT22;14078;50.974;6.786;2023-03-11T03:13:30;1.10;99.90
26378;DHT22;14078;50.974;6.786;2023-03-11T03:15:57;1.10;99.90
26378;DHT22;14078;50.974;6.786;2023-03-11T03:18:25;1.10;99.90
26378;DHT22;14078;50.974;6.786;2023-03-11T03:20:51;1.10;99.90
26378;DHT22;14078;50.974;6.786;2023-03-11T03:23:18;1.00;99.90
26378;DHT22;14078;50.974;6.786;2023-03-11T03:25:45;1.10;99.90
26378;DHT22;14078;50.974;6.786;2023-03-11T03:28:11;1.00;99.90
26378;DHT22;14078;50.974;6.786;2023-03-11T03:30:38;1.00;99.90
26378;DHT22;14078;50.974;6.786;2023-03-11T03:33:05;1.00;99.90
26378;DHT22;14078;50.974;6.786;2023-03-11T03:35:33;1.00;99.90
26378;DHT22;14078;50.974;6.786;2023-03-11T03:38:00;0.90;99.90
26378;DHT22;14078;50.974;6.786;2023-03-11T03:40:27;0.90;99.90
26378;DHT22;14078;50.974;6.786;2023-03-11T03:42:53;0.90;99.90
26378;DHT22;14078;50.974;6.786;2023-03-11T03:45:20;0.80;99.90
26378;DHT22;14078;50.974;6.786;2023-03-11T03:47:46;0.80;99.90
26378;DHT22;14078;50.974;6.786;2023-03-11T03:50:13;0.70;99.90
26378;DHT22;14078;50.974;6.786;2023-03-11T03:52:41;0.70;99.90
26378;DHT22;14078;50.974;6.786;2023-03-11T03:55:07;0.70;99.90
26378;DHT22;14078;50.974;6.786;2023-03-11T03:57:34;0.60;99.90
26378;DHT22;14078;50.974;6.786;2023-03-11T04:00:01;0.50;99.90
26378;DHT22;14078;50.974;6.786;2023-03-11T04:02:29;0.60;99.90
26378;DHT22;14078;50.974;6.786;2023-03-11T04:04:56;0.50;99.90
26378;DHT22;14078;50.974;6.786;2023-03-11T04:07:22;0.60;99.90
26378;DHT22;14078;50.974;6.786;2023-03-11T04:09:50;0.70;99.90
26378;DHT22;14078;50.974;6.786;2023-03-11T04:12:17;0.70;99.90
26378;DHT22;14078;50.974;6.786;2023-03-11T04:14:43;0.80;99.90
26378;DHT22;14078;50.974;6.786;2023-03-11T04:17:10;0.80;99.90
26378;DHT22;14078;50.974;6.786;2023-03-11T04:19:36;0.70;99.90
26378;DHT22;14078;50.974;6.786;2023-03-11T04:22:03;0.80;99.90
26378;DHT22;14078;50.974;6.786;2023-03-11T04:24:30;0.80;99.90
26378;DHT22;14078;50.974;6.786;2023-03-11T04:26:58;0.80;99.90
26378;DHT22;14078;50.974;6.786;2023-03-11T04:29:24;0.80;99.90
26378;DHT22;14078;50.974;6.786;2023-03-11T04:31:51;0.70;99.90
26378;DHT22;14078;50.974;6.786;2023-03-11T04:34:17;0.70;99.90
26378;DHT22;14078;50.974;6.786;2023-03-11T04:36:44;0.70;99.90
26378;DHT22;14078;50.974;6.786;2023-03-11T04:39:10;0.70;99.90
26378;DHT22;14078;50.974;6.786;2023-03-11T04:41:37;0.60;99.90
26378;DHT22;14078;50.974;6.786;2023-03-11T04:44:05;0.50;99.90
26378;DHT22;14078;50.974;6.786;2023-03-11T04:46:31;0.50;99.90
26378;DHT22;14078;50.974;6.786;2023-03-11T04:48:58;0.50;99.90
26378;DHT22;14078;50.974;6.786;2023-03-11T04:51:24;0.50;99.90
26378;DHT22;14078;50.974;6.786;2023-03-11T04:53:51;0.50;99.90
26378;DHT22;14078;50.974;6.786;2023-03-11T04:56:17;0.60;99.90
26378;DHT22;14078;50.974;6.786;2023-03-11T04:58:44;0.60;99.90
26378;DHT22;14078;50.974;6.786;2023-03-11T05:01:12;0.70;99.90
26378;DHT22;14078;50.974;6.786;2023-03-11T05:03:38;0.60;99.90
26378;DHT22;14078;50.974;6.786;2023-03-11T05:06:05;0.70;99.90
26378;DHT22;14078;50.974;6.786;2023-03-11T05:08:31;0.70;99.90
26378;DHT22;14078;50.974;6.786;2023-03-11T05:10:58;0.70;99.90
26378;DHT22;14078;50.974;6.786;2023-03-11T05:13:24;0.70;99.90
26378;DHT22;14078;50.974;6.786;2023-03-11T05:15:51;0.60;99.90
26378;DHT22;14078;50.974;6.786;2023-03-11T05:18:19;0.70;99.90
26378;DHT22;14078;50.974;6.786;2023-03-11T05:20:46;0.70;99.90
26378;DHT22;14078;50.974;6.786;2023-03-11T05:23:12;0.70;99.90
26378;DHT22;14078;50.974;6.786;2023-03-11T05:25:39;0.70;99.90
26378;DHT22;14078;50.974;6.786;2023-03-11T05:28:05;0.70;99.90
26378;DHT22;14078;50.974;6.786;2023-03-11T05:30:32;0.80;99.90
26378;DHT22;14078;50.974;6.786;2023-03-11T05:32:58;0.80;99.90
26378;DHT22;14078;50.974;6.786;2023-03-11T05:35:26;0.90;99.90
26378;DHT22;14078;50.974;6.786;2023-03-11T05:37:53;0.90;99.90
26378;DHT22;14078;50.974;6.786;2023-03-11T05:40:19;0.90;99.90
26378;DHT22;14078;50.974;6.786;2023-03-11T05:42:46;0.90;99.90
26378;DHT22;14078;50.974;6.786;2023-03-11T05:45:12;1.00;99.90
26378;DHT22;14078;50.974;6.786;2023-03-11T05:47:39;1.00;99.90
26378;DHT22;14078;50.974;6.786;2023-03-11T05:50:07;1.00;99.90
26378;DHT22;14078;50.974;6.786;2023-03-11T05:52:35;1.10;99.90
26378;DHT22;14078;50.974;6.786;2023-03-11T05:55:01;1.10;99.90
26378;DHT22;14078;50.974;6.786;2023-03-11T05:57:28;1.10;99.90
26378;DHT22;14078;50.974;6.786;2023-03-11T05:59:55;1.10;99.90
26378;DHT22;14078;50.974;6.786;2023-03-11T06:02:21;1.20;99.90
26378;DHT22;14078;50.974;6.786;2023-03-11T06:04:48;1.20;99.90
26378;DHT22;14078;50.974;6.786;2023-03-11T06:07:14;1.20;99.90
26378;DHT22;14078;50.974;6.786;2023-03-11T06:09:42;1.10;99.90
26378;DHT22;14078;50.974;6.786;2023-03-11T06:12:09;1.10;99.90
26378;DHT22;14078;50.974;6.786;2023-03-11T06:14:35;1.10;99.90
26378;DHT22;14078;50.974;6.786;2023-03-11T06:17:02;1.10;99.90
26378;DHT22;14078;50.974;6.786;2023-03-11T06:19:29;1.20;99.90
26378;DHT22;14078;50.974;6.786;2023-03-11T06:21:56;1.20;99.90
26378;DHT22;14078;50.974;6.786;2023-03-11T06:24:22;1.20;99.90
26378;DHT22;14078;50.974;6.786;2023-03-11T06:26:51;1.20;99.90
26378;DHT22;14078;50.974;6.786;2023-03-11T06:29:17;1.20;99.90
26378;DHT22;14078;50.974;6.786;2023-03-11T06:31:44;1.30;99.90
26378;DHT22;14078;50.974;6.786;2023-03-11T06:34:10;1.30;99.90
26378;DHT22;14078;50.974;6.786;2023-03-11T06:36:37;1.40;99.90
26378;DHT22;14078;50.974;6.786;2023-03-11T06:39:03;1.40;99.90
26378;DHT22;14078;50.974;6.786;2023-03-11T06:41:31;1.40;99.90
26378;DHT22;14078;50.974;6.786;2023-03-11T06:43:59;1.50;99.90
26378;DHT22;14078;50.974;6.786;2023-03-11T06:46:26;1.50;99.90
26378;DHT22;14078;50.974;6.786;2023-03-11T06:48:53;1.40;99.90
26378;DHT22;14078;50.974;6.786;2023-03-11T06:51:19;1.50;99.90
26378;DHT22;14078;50.974;6.786;2023-03-11T06:53:47;1.50;99.90
26378;DHT22;14078;50.974;6.786;2023-03-11T06:56:13;1.40;99.90
26378;DHT22;14078;50.974;6.786;2023-03-11T06:58:40;1.50;99.90
26378;DHT22;14078;50.974;6.786;2023-03-11T07:01:09;1.50;99.90
26378;DHT22;14078;50.974;6.786;2023-03-11T07:03:36;1.50;99.90
26378;DHT22;14078;50.974;6.786;2023-03-11T07:06:03;1.50;99.90
26378;DHT22;14078;50.974;6.786;2023-03-11T07:08:30;1.50;99.90
26378;DHT22;14078;50.974;6.786;2023-03-11T07:11:00;1.60;99.90
26378;DHT22;14078;50.974;6.786;2023-03-11T07:13:27;1.60;99.90
26378;DHT22;14078;50.974;6.786;2023-03-11T07:16:00;1.50;99.90
26378;DHT22;14078;50.974;6.786;2023-03-11T07:18:28;1.50;99.90
26378;DHT22;14078;50.974;6.786;2023-03-11T07:20:55;1.60;99.90
26378;DHT22;14078;50.974;6.786;2023-03-11T07:23:21;1.50;99.90
26378;DHT22;14078;50.974;6.786;2023-03-11T07:25:48;1.60;99.90
26378;DHT22;14078;50.974;6.786;2023-03-11T07:28:16;1.60;99.90
26378;DHT22;14078;50.974;6.786;2023-03-11T07:30:42;1.60;99.90
26378;DHT22;14078;50.974;6.786;2023-03-11T07:33:10;1.60;99.90
26378;DHT22;14078;50.974;6.786;2023-03-11T07:35:38;1.50;99.90
26378;DHT22;14078;50.974;6.786;2023-03-11T07:38:05;1.50;99.90
26378;DHT22;14078;50.974;6.786;2023-03-11T07:40:31;1.60;99.90
26378;DHT22;14078;50.974;6.786;2023-03-11T07:42:58;1.60;99.90
26378;DHT22;14078;50.974;6.786;2023-03-11T07:45:24;1.60;99.90
26378;DHT22;14078;50.974;6.786;2023-03-11T07:47:51;1.60;99.90
26378;DHT22;14078;50.974;6.786;2023-03-11T07:50:17;1.70;99.90
26378;DHT22;14078;50.974;6.786;2023-03-11T07:52:47;1.70;99.90
26378;DHT22;14078;50.974;6.786;2023-03-11T07:55:14;1.80;99.90
26378;DHT22;14078;50.974;6.786;2023-03-11T07:57:40;1.80;99.90
26378;DHT22;14078;50.974;6.786;2023-03-11T08:00:08;1.80;99.90
26378;DHT22;14078;50.974;6.786;2023-03-11T08:02:36;1.90;99.90
26378;DHT22;14078;50.974;6.786;2023-03-11T08:05:03;2.00;99.90
26378;DHT22;14078;50.974;6.786;2023-03-11T08:07:30;2.00;99.90
26378;DHT22;14078;50.974;6.786;2023-03-11T08:09:58;2.10;99.90
26378;DHT22;14078;50.974;6.786;2023-03-11T08:12:24;2.10;99.90
26378;DHT22;14078;50.974;6.786;2023-03-11T08:14:51;2.20;99.90
26378;DHT22;14078;50.974;6.786;2023-03-11T08:17:17;2.30;99.90
26378;DHT22;14078;50.974;6.786;2023-03-11T08:19:44;2.30;99.90
26378;DHT22;14078;50.974;6.786;2023-03-11T08:22:10;2.30;99.90
26378;DHT22;14078;50.974;6.786;2023-03-11T08:24:37;2.40;99.90
26378;DHT22;14078;50.974;6.786;2023-03-11T08:27:05;2.50;99.90
26378;DHT22;14078;50.974;6.786;2023-03-11T08:29:33;2.50;99.90
26378;DHT22;14078;50.974;6.786;2023-03-11T08:32:01;2.50;99.90
26378;DHT22;14078;50.974;6.786;2023-03-11T08:34:28;2.50;99.90
26378;DHT22;14078;50.974;6.786;2023-03-11T08:36:54;2.60;99.90
26378;DHT22;14078;50.974;6.786;2023-03-11T08:39:21;2.60;99.90
26378;DHT22;14078;50.974;6.786;2023-03-11T08:41:48;2.70;99.90
26378;DHT22;14078;50.974;6.786;2023-03-11T08:44:16;2.70;99.90
26378;DHT22;14078;50.974;6.786;2023-03-11T08:46:42;2.80;96.80
26378;DHT22;14078;50.974;6.786;2023-03-11T08:49:09;2.80;93.70
26378;DHT22;14078;50.974;6.786;2023-03-11T08:51:36;2.90;90.20
26378;DHT22;14078;50.974;6.786;2023-03-11T08:54:02;3.00;75.20
26378;DHT22;14078;50.974;6.786;2023-03-11T08:56:29;3.00;68.60
26378;DHT22;14078;50.974;6.786;2023-03-11T08:58:56;3.00;49.80
26378;DHT22;14078;50.974;6.786;2023-03-11T09:01:24;3.10;87.90
26378;DHT22;14078;50.974;6.786;2023-03-11T09:03:50;3.30;94.50
26378;DHT22;14078;50.974;6.786;2023-03-11T09:06:17;3.40;94.70
26378;DHT22;14078;50.974;6.786;2023-03-11T09:08:44;3.30;57.80
26378;DHT22;14078;50.974;6.786;2023-03-11T09:11:11;3.40;62.00
26378;DHT22;14078;50.974;6.786;2023-03-11T09:13:38;3.40;1.00
26378;DHT22;14078;50.974;6.786;2023-03-11T09:16:05;3.40;1.00
26378;DHT22;14078;50.974;6.786;2023-03-11T09:18:33;3.50;1.00
26378;DHT22;14078;50.974;6.786;2023-03-11T09:21:00;3.50;99.90
26378;DHT22;14078;50.974;6.786;2023-03-11T09:23:26;3.40;99.90
26378;DHT22;14078;50.974;6.786;2023-03-11T09:25:53;3.40;1.00
26378;DHT22;14078;50.974;6.786;2023-03-11T09:28:19;3.50;99.90
26378;DHT22;14078;50.974;6.786;2023-03-11T09:30:46;3.50;1.00
26378;DHT22;14078;50.974;6.786;2023-03-11T09:33:13;3.60;1.00
26378;DHT22;14078;50.974;6.786;2023-03-11T09:35:41;3.70;1.00
26378;DHT22;14078;50.974;6.786;2023-03-11T09:38:07;3.80;99.90
26378;DHT22;14078;50.974;6.786;2023-03-11T09:40:38;3.80;1.00
26378;DHT22;14078;50.974;6.786;2023-03-11T09:43:11;3.70;99.90
26378;DHT22;14078;50.974;6.786;2023-03-11T09:45:41;3.70;1.00
26378;DHT22;14078;50.974;6.786;2023-03-11T09:48:13;3.80;99.90
26378;DHT22;14078;50.974;6.786;2023-03-11T09:50:44;3.90;1.00
26378;DHT22;14078;50.974;6.786;2023-03-11T09:53:16;3.90;99.90
26378;DHT22;14078;50.974;6.786;2023-03-11T09:55:45;4.00;1.00
26378;DHT22;14078;50.974;6.786;2023-03-11T09:58:13;4.10;99.90
26378;DHT22;14078;50.974;6.786;2023-03-11T10:00:41;4.10;99.90
26378;DHT22;14078;50.974;6.786;2023-03-11T10:03:11;4.20;1.00
26378;DHT22;14078;50.974;6.786;2023-03-11T10:05:39;4.20;99.90
26378;DHT22;14078;50.974;6.786;2023-03-11T10:08:10;4.30;1.00
26378;DHT22;14078;50.974;6.786;2023-03-11T10:10:40;4.30;1.00
26378;DHT22;14078;50.974;6.786;2023-03-11T10:13:09;4.30;99.90
26378;DHT22;14078;50.974;6.786;2023-03-11T10:15:41;4.50;99.90
26378;DHT22;14078;50.974;6.786;2023-03-11T10:18:21;4.50;96.70
26378;DHT22;14078;50.974;6.786;2023-03-11T10:20:54;4.50;1.00
26378;DHT22;14078;50.974;6.786;2023-03-11T10:23:25;4.70;99.90
26378;DHT22;14078;50.974;6.786;2023-03-11T10:25:59;4.70;99.90
26378;DHT22;14078;50.974;6.786;2023-03-11T10:28:30;4.90;45.90
26378;DHT22;14078;50.974;6.786;2023-03-11T10:30:59;5.00;1.00
26378;DHT22;14078;50.974;6.786;2023-03-11T10:33:28;5.30;1.00
26378;DHT22;14078;50.974;6.786;2023-03-11T10:35:57;5.40;99.90
26378;DHT22;14078;50.974;6.786;2023-03-11T10:38:30;5.30;99.90
26378;DHT22;14078;50.974;6.786;2023-03-11T10:40:57;5.20;98.70
26378;DHT22;14078;50.974;6.786;2023-03-11T10:43:26;5.20;99.90
26378;DHT22;14078;50.974;6.786;2023-03-11T10:45:53;5.10;98.50
26378;DHT22;14078;50.974;6.786;2023-03-11T10:48:20;5.10;62.50
26378;DHT22;14078;50.974;6.786;2023-03-11T10:50:49;5.00;99.90
26378;DHT22;14078;50.974;6.786;2023-03-11T10:53:16;5.00;99.90
26378;DHT22;14078;50.974;6.786;2023-03-11T10:55:46;5.20;99.90
26378;DHT22;14078;50.974;6.786;2023-03-11T10:58:13;5.10;61.20
26378;DHT22;14078;50.974;6.786;2023-03-11T11:00:40;5.20;99.90
26378;DHT22;14078;50.974;6.786;2023-03-11T11:03:11;5.40;99.60
26378;DHT22;14078;50.974;6.786;2023-03-11T11:05:40;5.50;58.80
26378;DHT22;14078;50.974;6.786;2023-03-11T11:08:08;5.60;1.00
26378;DHT22;14078;50.974;6.786;2023-03-11T11:10:47;5.50;20.70
26378;DHT22;14078;50.974;6.786;2023-03-11T11:13:17;5.70;99.90
26378;DHT22;14078;50.974;6.786;2023-03-11T11:15:54;5.80;99.90
26378;DHT22;14078;50.974;6.786;2023-03-11T11:18:22;6.00;17.90
26378;DHT22;14078;50.974;6.786;2023-03-11T11:20:54;6.10;33.90
26378;DHT22;14078;50.974;6.786;2023-03-11T11:23:24;6.00;11.80
26378;DHT22;14078;50.974;6.786;2023-03-11T11:25:54;6.10;25.60
26378;DHT22;14078;50.974;6.786;2023-03-11T11:28:23;6.00;1.00
26378;DHT22;14078;50.974;6.786;2023-03-11T11:30:51;6.00;9.90
26378;DHT22;14078;50.974;6.786;2023-03-11T11:33:22;6.10;12.40
26378;DHT22;14078;50.974;6.786;2023-03-11T11:35:50;6.20;92.70
26378;DHT22;14078;50.974;6.786;2023-03-11T11:38:17;6.20;85.80
26378;DHT22;14078;50.974;6.786;2023-03-11T11:40:46;6.10;46.30
26378;DHT22;14078;50.974;6.786;2023-03-11T11:43:13;6.10;15.40
26378;DHT22;14078;50.974;6.786;2023-03-11T11:45:44;5.90;21.40
26378;DHT22;14078;50.974;6.786;2023-03-11T11:48:13;5.90;16.70
26378;DHT22;14078;50.974;6.786;2023-03-11T11:50:42;5.80;13.30
26378;DHT22;14078;50.974;6.786;2023-03-11T11:53:12;5.90;97.60
26378;DHT22;14078;50.974;6.786;2023-03-11T11:55:40;6.10;66.10
26378;DHT22;14078;50.974;6.786;2023-03-11T11:58:08;6.30;1.00
26378;DHT22;14078;50.974;6.786;2023-03-11T12:00:36;6.50;11.60
26378;DHT22;14078;50.974;6.786;2023-03-11T12:03:15;6.30;1.00
26378;DHT22;14078;50.974;6.786;2023-03-11T12:05:46;6.20;1.00
26378;DHT22;14078;50.974;6.786;2023-03-11T12:08:18;6.10;1.00
26378;DHT22;14078;50.974;6.786;2023-03-11T12:10:48;6.20;1.00
26378;DHT22;14078;50.974;6.786;2023-03-11T12:13:23;6.30;1.00
26378;DHT22;14078;50.974;6.786;2023-03-11T12:15:54;6.40;1.00
26378;DHT22;14078;50.974;6.786;2023-03-11T12:18:26;6.50;1.00
26378;DHT22;14078;50.974;6.786;2023-03-11T12:20:54;6.20;1.00
26378;DHT22;14078;50.974;6.786;2023-03-11T12:23:27;6.20;1.00
26378;DHT22;14078;50.974;6.786;2023-03-11T12:26:00;6.00;1.00
26378;DHT22;14078;50.974;6.786;2023-03-11T12:28:30;5.90;1.00
26378;DHT22;14078;50.974;6.786;2023-03-11T12:31:00;5.90;1.00
26378;DHT22;14078;50.974;6.786;2023-03-11T12:33:30;6.00;9.40
26378;DHT22;14078;50.974;6.786;2023-03-11T12:35:58;6.10;99.90
26378;DHT22;14078;50.974;6.786;2023-03-11T12:38:27;6.00;1.00
26378;DHT22;14078;50.974;6.786;2023-03-11T12:40:56;6.10;1.00
26378;DHT22;14078;50.974;6.786;2023-03-11T12:46:08;6.20;18.50
26378;DHT22;14078;50.974;6.786;2023-03-11T12:48:40;6.50;1.00
26378;DHT22;14078;50.974;6.786;2023-03-11T12:51:12;6.40;1.00
26378;DHT22;14078;50.974;6.786;2023-03-11T12:53:59;6.40;99.90
26378;DHT22;14078;50.974;6.786;2023-03-11T12:56:47;6.60;1.00
26378;DHT22;14078;50.974;6.786;2023-03-11T12:59:33;6.50;1.00
26378;DHT22;14078;50.974;6.786;2023-03-11T13:02:03;6.40;10.30
26378;DHT22;14078;50.974;6.786;2023-03-11T13:04:36;6.40;99.70
26378;DHT22;14078;50.974;6.786;2023-03-11T13:07:25;6.30;92.80
26378;DHT22;14078;50.974;6.786;2023-03-11T13:10:01;6.20;99.90
26378;DHT22;14078;50.974;6.786;2023-03-11T13:12:38;6.30;99.90
26378;DHT22;14078;50.974;6.786;2023-03-11T13:17:57;6.60;10.10
26378;DHT22;14078;50.974;6.786;2023-03-11T13:20:45;6.50;1.00
26378;DHT22;14078;50.974;6.786;2023-03-11T13:23:28;6.80;1.00
26378;DHT22;14078;50.974;6.786;2023-03-11T13:26:01;6.70;1.00
26378;DHT22;14078;50.974;6.786;2023-03-11T13:28:39;6.50;1.00
26378;DHT22;14078;50.974;6.786;2023-03-11T13:31:13;6.50;1.00
26378;DHT22;14078;50.974;6.786;2023-03-11T13:33:47;6.40;29.30
26378;DHT22;14078;50.974;6.786;2023-03-11T13:36:18;6.50;45.30
26378;DHT22;14078;50.974;6.786;2023-03-11T13:38:56;6.50;6.10
26378;DHT22;14078;50.974;6.786;2023-03-11T13:41:26;6.50;1.00
26378;DHT22;14078;50.974;6.786;2023-03-11T13:43:55;6.40;32.00
26378;DHT22;14078;50.974;6.786;2023-03-11T13:46:25;6.30;25.10
26378;DHT22;14078;50.974;6.786;2023-03-11T13:48:54;6.20;44.30
26378;DHT22;14078;50.974;6.786;2023-03-11T13:51:24;6.10;99.90
26378;DHT22;14078;50.974;6.786;2023-03-11T13:53:53;6.20;38.10
26378;DHT22;14078;50.974;6.786;2023-03-11T13:56:23;6.00;43.30
26378;DHT22;14078;50.974;6.786;2023-03-11T13:58:51;6.00;29.20
26378;DHT22;14078;50.974;6.786;2023-03-11T14:01:17;6.10;99.90
26378;DHT22;14078;50.974;6.786;2023-03-11T14:03:45;6.20;99.90
26378;DHT22;14078;50.974;6.786;2023-03-11T14:06:13;6.30;53.80
26378;DHT22;14078;50.974;6.786;2023-03-11T14:08:41;6.40;42.00
26378;DHT22;14078;50.974;6.786;2023-03-11T14:11:15;6.40;1.00
26378;DHT22;14078;50.974;6.786;2023-03-11T14:13:43;6.40;1.00
26378;DHT22;14078;50.974;6.786;2023-03-11T14:16:12;6.40;41.80
26378;DHT22;14078;50.974;6.786;2023-03-11T14:18:40;6.50;21.90
26378;DHT22;14078;50.974;6.786;2023-03-11T14:21:10;6.40;1.00
26378;DHT22;14078;50.974;6.786;2023-03-11T14:23:43;6.30;24.60
26378;DHT22;14078;50.974;6.786;2023-03-11T14:26:13;6.40;1.00
26378;DHT22;14078;50.974;6.786;2023-03-11T14:28:41;6.20;99.90
26378;DHT22;14078;50.974;6.786;2023-03-11T14:31:18;6.30;99.90
26378;DHT22;14078;50.974;6.786;2023-03-11T14:33:52;6.40;99.90
26378;DHT22;14078;50.974;6.786;2023-03-11T14:36:19;6.40;13.50
26378;DHT22;14078;50.974;6.786;2023-03-11T14:38:47;6.40;18.70
26378;DHT22;14078;50.974;6.786;2023-03-11T14:41:13;6.40;1.00
26378;DHT22;14078;50.974;6.786;2023-03-11T14:43:41;6.40;1.00
26378;DHT22;14078;50.974;6.786;2023-03-11T14:46:09;6.50;1.00
26378;DHT22;14078;50.974;6.786;2023-03-11T14:48:41;6.50;1.00
26378;DHT22;14078;50.974;6.786;2023-03-11T14:51:10;6.40;99.90
26378;DHT22;14078;50.974;6.786;2023-03-11T14:53:40;6.20;23.90
26378;DHT22;14078;50.974;6.786;2023-03-11T14:56:11;6.30;99.90
26378;DHT22;14078;50.974;6.786;2023-03-11T14:58:38;6.20;26.00
26378;DHT22;14078;50.974;6.786;2023-03-11T15:01:08;6.40;99.90
26378;DHT22;14078;50.974;6.786;2023-03-11T15:03:38;6.50;33.80
26378;DHT22;14078;50.974;6.786;2023-03-11T15:06:06;6.70;1.00
26378;DHT22;14078;50.974;6.786;2023-03-11T15:08:35;6.70;1.00
26378;DHT22;14078;50.974;6.786;2023-03-11T15:11:04;6.60;1.00
26378;DHT22;14078;50.974;6.786;2023-03-11T15:13:33;6.60;99.90
26378;DHT22;14078;50.974;6.786;2023-03-11T15:16:00;6.40;88.90
26378;DHT22;14078;50.974;6.786;2023-03-11T15:18:28;6.60;1.00
26378;DHT22;14078;50.974;6.786;2023-03-11T15:21:00;6.60;1.00
26378;DHT22;14078;50.974;6.786;2023-03-11T15:23:27;6.60;99.90
26378;DHT22;14078;50.974;6.786;2023-03-11T15:25:53;6.70;99.90
26378;DHT22;14078;50.974;6.786;2023-03-11T15:28:20;6.80;99.90
26378;DHT22;14078;50.974;6.786;2023-03-11T15:30:49;6.80;3.50
26378;DHT22;14078;50.974;6.786;2023-03-11T15:33:20;7.00;79.40
26378;DHT22;14078;50.974;6.786;2023-03-11T15:35:47;7.00;36.30
26378;DHT22;14078;50.974;6.786;2023-03-11T15:38:17;7.20;1.00
26378;DHT22;14078;50.974;6.786;2023-03-11T15:40:49;7.30;1.00
26378;DHT22;14078;50.974;6.786;2023-03-11T15:43:20;7.40;1.00
26378;DHT22;14078;50.974;6.786;2023-03-11T15:45:48;7.50;1.00
26378;DHT22;14078;50.974;6.786;2023-03-11T15:48:16;7.30;1.00
26378;DHT22;14078;50.974;6.786;2023-03-11T15:50:46;7.30;1.00
26378;DHT22;14078;50.974;6.786;2023-03-11T15:53:14;7.50;1.00
26378;DHT22;14078;50.974;6.786;2023-03-11T15:55:40;7.40;1.00
26378;DHT22;14078;50.974;6.786;2023-03-11T15:58:07;7.50;1.00
26378;DHT22;14078;50.974;6.786;2023-03-11T16:00:34;7.60;1.00
26378;DHT22;14078;50.974;6.786;2023-03-11T16:03:01;7.60;1.00
26378;DHT22;14078;50.974;6.786;2023-03-11T16:05:29;7.70;1.00